Paulistana II — 00 — position and weather

sailwx.info

Track history (hours):
 
Tides and Currents Weather Stations Pressure Air Temp Water Temp Dewpoint Dewpoint Depression Visibility Wind Speed Wind Dir Waves Ship Positions

Paulistana II

Last reported at 2015-May-30 01:33 UTC. Time now 2015-May-30 02:29 UTC.
Position N 31°22' E 121°40'.

Length 6 m.

Type: Pollution control. MMSI: 316014038.

Date/timePositionNaut miles runAvg speedWind from/ knotsBaromVisibWave heightAir tempDewpointWater temp
2015-May-30 01:33N 31°22' E 121°40'0 0.0
2015-May-30 00:33N 31°22' E 121°40'11164.5
2015-May-30 00:29N 31°21' E 121°27'1112.2
2015-May-29 23:33N 31°22' E 121°40'9479.3
2015-May-29 23:32N 31°22' E 121°30'9 9.2
2015-May-29 22:33N 31°22' E 121°40'0 0.0
2015-May-29 21:33N 31°22' E 121°40'0 0.0
2015-May-29 20:33N 31°22' E 121°40'77313.0
2015-May-29 20:18N 31°58' E 120°21'77102.4
2015-May-29 19:33N 31°22' E 121°40'77215.8
2015-May-29 19:12N 31°58' E 120°21'77117.9
2015-May-29 18:33N 31°22' E 121°40'771484.2
2015-May-29 18:30N 31°58' E 120°21'7780.8
2015-May-29 17:33N 31°22' E 121°40'7713144.9
2015-May-29 17:33N 31°58' E 120°21'7777.1
2015-May-29 16:33N 31°22' E 121°40'77295.9
2015-May-29 16:18N 31°58' E 120°21'77103.4
2015-May-29 15:33N 31°21' E 121°40'911146.7
2015-May-29 15:33N 31°24' E 121°30'10 9.7
2015-May-29 14:33N 31°20' E 121°40'1081.4
2015-May-29 14:26N 31°24' E 121°30'68201.2
2015-May-29 14:05N 31°58' E 120°21'78144.2
2015-May-29 13:33N 31°20' E 121°40'10303.0
2015-May-29 13:31N 31°24' E 121°30'682267.4
2015-May-29 13:29N 31°58' E 120°21'7881.8
2015-May-29 12:32N 31°20' E 121°40'7746486.3
2015-May-29 12:32N 31°58' E 120°21'681536.7
2015-May-29 12:30N 31°24' E 121°30'1010.3
2015-May-29 11:33N 31°20' E 121°40'1044.9
2015-May-29 11:21N 31°24' E 121°30'68337.4
2015-May-29 11:09N 31°58' E 120°21'77130.8
2015-May-29 10:33N 31°20' E 121°40'77713.3
2015-May-29 10:26N 31°58' E 120°21'7885.7
2015-May-29 09:32N 31°20' E 121°40'6 6.0
2015-May-29 08:33N 31°23' E 121°35'7216113.3
2015-May-29 08:32N 31°58' E 120°21'6360.3
2015-May-29 07:30N 31°28' E 121°26'6 6.3
2015-May-29 06:33N 31°32' E 121°21'6 6.2
2015-May-29 05:33N 31°37' E 121°16'6 6.1
2015-May-29 04:31N 31°41' E 121°11'4546.4
2015-May-29 03:32N 31°58' E 120°21'38100.2
2015-May-29 03:09N 31°45' E 121°04'3 4.7
2015-May-29 02:31N 31°46' E 121°01'351289.4
2015-May-29 02:29N 31°58' E 120°21'0 0.0
2015-May-29 00:28N 31°58' E 120°21'0 0.0
2015-May-28 23:16N 31°58' E 120°21'0 0.0
2015-May-28 22:22N 31°58' E 120°21'3752101.4
2015-May-28 22:11N 25°45' E 119°39'37816800.1
2015-May-28 22:10N 31°60' E 120°39'4 6.5
2015-May-28 21:29N 32°02' E 120°35'1253.7
2015-May-28 21:16N 31°58' E 120°21'7 8.6
2015-May-28 20:24N 32°04' E 120°27'7251.6
2015-May-28 20:22N 31°58' E 120°21'0 0.0
2015-May-28 15:22N 31°58' E 120°21'2 0.9
2015-May-28 13:24N 31°60' E 120°23'2 7.8
2015-May-28 13:09N 31°58' E 120°21'0 0.0
2015-May-28 12:21N 31°58' E 120°21'0 0.0
2015-May-28 10:15N 31°58' E 120°21'0 0.0
2015-May-28 08:27N 31°58' E 120°21'0 0.0
2015-May-28 06:24N 31°58' E 120°21'0 0.0
2015-May-28 03:30N 31°58' E 120°21'647684.6
2015-May-28 02:33N 23°06' E 113°26'1 0.9
2015-May-28 01:32N 23°05' E 113°27'6471447.1
2015-May-28 01:05N 31°58' E 120°21'6511142.9
2015-May-28 00:31N 22°58' E 113°32'6517996.4
2015-May-28 00:26N 31°58' E 120°21'745833435.0
2015-May-28 00:13N 29°33' W 095°02'2 2.4
2015-May-27 23:33N 29°33' W 094°60'745943735.0
2015-May-27 23:23N 31°58' E 120°21'0 0.0
2015-May-27 22:08N 31°58' E 120°21'0 0.0
2015-May-27 21:32N 31°58' E 120°21'0 0.0
2015-May-27 20:20N 31°58' E 120°21'0 0.0
2015-May-27 19:11N 31°58' E 120°21'0 0.0
2015-May-27 16:31N 31°58' E 120°21'0 0.0
2015-May-27 15:25N 31°58' E 120°21'9230109297.2
2015-May-27 15:20N 41°38' W 071°23'923010065.6
2015-May-27 14:25N 31°58' E 120°21'0 0.0
2015-May-27 13:31N 31°58' E 120°21'0 0.0
2015-May-27 12:25N 31°58' E 120°21'0 0.0
2015-May-27 10:04N 31°58' E 120°21'0 0.0
2015-May-27 08:19N 31°58' E 120°21'0 0.0
2015-May-27 06:22N 31°58' E 120°21'0 0.0
2015-May-27 00:27N 31°58' E 120°21'652210.0
2015-May-26 21:21N 22°56' E 113°33'7 9.2
2015-May-26 20:33N 23°03' E 113°30'4 3.6
2015-May-26 19:33N 23°06' E 113°27'94359346.3
2015-May-26 18:33N 41°37' W 071°24'94351306327.4
2015-May-26 18:32N 23°06' E 113°27'0 0.0
2015-May-26 17:33N 23°06' E 113°27'6571534.2
2015-May-26 17:08N 31°20' E 121°33'6571131.8
2015-May-26 16:33N 23°06' E 113°27'0 0.0
2015-May-26 15:33N 23°06' E 113°27'0 0.0
2015-May-26 14:33N 23°06' E 113°27'0 0.0
2015-May-26 13:33N 23°06' E 113°27'0 0.0
2015-May-26 12:33N 23°06' E 113°27'0 0.0
2015-May-26 11:33N 23°06' E 113°27'0 0.0
2015-May-26 10:33N 23°06' E 113°27'0 0.0
2015-May-26 09:33N 23°06' E 113°27'0 0.0
2015-May-26 08:33N 23°06' E 113°27'0 0.0
2015-May-26 07:33N 23°06' E 113°27'4 3.6
2015-May-26 06:33N 23°03' E 113°30'661163.4
2015-May-26 02:30N 31°55' E 120°52'6 6.1
2015-May-26 01:33N 32°00' E 120°49'51 3.9
2015-May-25 12:24N 31°22' E 121°29'4 1.1
2015-May-25 09:10N 31°20' E 121°25'0 0.0
2015-May-25 07:16N 31°20' E 121°25'656173.3
2015-May-25 03:29N 22°56' E 113°33'8 9.1
2015-May-25 02:33N 23°04' E 113°30'4 3.7
2015-May-25 01:31N 23°05' E 113°26'9452368.4
2015-May-25 01:07N 38°16' E 118°20'9451666.7
2015-May-25 00:33N 23°05' E 113°26'94521678.3
2015-May-25 00:30N 38°16' E 118°21'520712062.5
2015-May-25 00:05N 48°34' W 123°01'620011342.0
2015-May-24 23:32N 23°06' E 113°27'9453331.8
2015-May-24 23:15N 38°16' E 118°20'0 0.0
2015-May-24 22:33N 38°16' E 118°20'94553997.5
2015-May-24 22:32N 23°06' E 113°27'94969605.3
2015-May-24 21:33N 41°19' W 072°21'9496422042.3
2015-May-24 21:32N 23°06' E 113°27'94541997.2
2015-May-24 21:30N 38°16' E 118°20'87929209.0
2015-May-24 20:33N 41°20' W 072°21'949517091692.9
2015-May-24 20:33N 23°06' E 113°27'9454966.1
2015-May-24 20:22N 38°16' E 118°20'9451175.1
2015-May-24 19:33N 23°06' E 113°27'94972136832.6
2015-May-24 19:33N 41°17' W 072°21'8794310390.7
2015-May-24 19:31N 38°16' E 118°20'945971.4
2015-May-24 18:33N 23°06' E 113°27'9496633067.5
2015-May-24 18:32N 41°19' W 072°21'8793209635.5
2015-May-24 18:30N 38°16' E 118°20'9451007.4
2015-May-24 17:33N 23°06' E 113°27'94964273089.2
2015-May-24 17:33N 41°19' W 072°21'94969522.2
2015-May-24 16:33N 23°06' E 113°27'0 0.1
2015-May-24 15:33N 23°06' E 113°27'0 0.0
2015-May-24 14:33N 23°06' E 113°27'0 0.0
2015-May-24 13:33N 23°06' E 113°27'0 0.0
2015-May-24 12:33N 23°06' E 113°27'0 0.0
2015-May-24 11:33N 23°06' E 113°27'0 0.0
2015-May-24 10:33N 23°06' E 113°27'0 0.0
2015-May-24 09:33N 23°06' E 113°27'0 0.0
2015-May-24 08:33N 23°06' E 113°27'0 0.0
2015-May-24 07:33N 23°06' E 113°27'1 1.1
2015-May-24 06:33N 23°05' E 113°26'6554030.6
2015-May-24 06:23N 31°21' E 121°27'655782.1
2015-May-24 05:33N 23°05' E 113°26'6572546.7
2015-May-24 05:18N 31°22' E 121°30'657880.2
2015-May-24 04:33N 23°05' E 113°26'4 4.3
2015-May-24 03:33N 23°03' E 113°30'946396.6
2015-May-24 01:09N 38°16' E 118°19'5 7.7
2015-May-24 00:28N 38°15' E 118°12'1 0.9
2015-May-23 23:33N 38°15' E 118°13'3932707.9
2015-May-23 23:24N 32°02' E 120°45'1 1.0
2015-May-23 22:31N 32°02' E 120°46'39342895.6
2015-May-23 22:30N 38°16' E 118°19'0 0.0
2015-May-23 21:32N 38°16' E 118°19'39716993.7
2015-May-23 21:30N 31°59' E 120°50'397418.1
2015-May-23 20:33N 38°16' E 118°19'0 0.0
2015-May-23 19:30N 38°16' E 118°19'0 0.0
2015-May-23 18:21N 38°16' E 118°19'5210322.8
2015-May-23 02:13N 48°32' W 123°00'1 0.8
2015-May-23 01:33N 48°32' W 123°01'62022065.3
2015-May-22 22:33N 23°01' E 113°31'62022232745.4
2015-May-22 22:33N 48°32' W 123°01'62026218.8
2015-May-22 21:33N 23°06' E 113°27'620260502.9
2015-May-22 21:27N 48°32' W 123°01'62026909.8
2015-May-22 20:33N 23°06' E 113°27'620260667.3
2015-May-22 20:27N 48°32' W 123°01'62026781.8
2015-May-22 19:32N 23°06' E 113°27'620233421.7
2015-May-22 19:21N 48°32' W 123°01'0 0.0
2015-May-22 18:33N 48°32' W 123°01'6202676544.2
2015-May-22 18:33N 23°06' E 113°26'0 0.0
2015-May-22 17:33N 23°06' E 113°26'62022029633.4
2015-May-22 17:33N 48°32' W 123°01'62016220.3
2015-May-22 16:33N 23°06' E 113°27'62012029520.0
2015-May-22 16:33N 48°32' W 123°01'62016222.1
2015-May-22 15:33N 23°06' E 113°27'620160174.9
2015-May-22 15:27N 48°32' W 123°01'62016911.7
2015-May-22 14:33N 23°06' E 113°27'62012232471.3
2015-May-22 14:33N 48°32' W 123°01'62016220.3
2015-May-22 13:33N 23°06' E 113°27'62012232470.2
2015-May-22 13:33N 48°32' W 123°01'62016148.4
2015-May-22 12:33N 23°06' E 113°27'620125719.7
2015-May-22 12:18N 48°32' W 123°01'62018174.6
2015-May-22 11:33N 23°06' E 113°27'6201150842.6
2015-May-22 11:30N 48°32' W 123°01'62026564.6
2015-May-22 10:34N 23°06' E 113°27'6202112191.4
2015-May-22 10:30N 48°32' W 123°01'62026527.0
2015-May-22 09:33N 23°05' E 113°26'6202125442.8
2015-May-22 09:30N 48°32' W 123°01'62026449.7
2015-May-22 08:33N 23°05' E 113°26'620270216.4
2015-May-22 08:27N 48°32' W 123°01'0 0.0
2015-May-22 07:33N 48°32' W 123°01'6202398729.2
2015-May-22 07:32N 23°05' E 113°26'62026300.5
2015-May-22 06:33N 48°32' W 123°01'62021240490.7
2015-May-22 06:33N 23°05' E 113°26'0 0.0
2015-May-22 05:33N 23°05' E 113°26'620211164412.3
2015-May-22 05:33N 48°32' W 123°01'62026204.2
2015-May-22 04:33N 23°05' E 113°26'6202124049.1
2015-May-22 04:30N 48°32' W 123°01'0 0.0
2015-May-22 03:33N 48°32' W 123°01'6202544605.7
2015-May-22 03:33N 23°05' E 113°26'6601441.0
2015-May-22 03:05N 31°39' E 121°13'540910206.1
2015-May-22 02:33N 48°32' W 123°01'6202603482.0
2015-May-22 02:33N 23°05' E 113°26'0 0.0
2015-May-22 01:33N 23°05' E 113°26'6202136151.4
2015-May-22 01:30N 48°32' W 123°01'62026536.5
2015-May-22 00:33N 23°05' E 113°26'620222328824.7
2015-May-22 00:33N 48°32' W 123°01'62026218.0
2015-May-21 23:33N 23°05' E 113°26'62022791104.1
2015-May-21 23:33N 48°32' W 123°01'541016804.9
2015-May-21 23:14N 31°58' E 120°51'54107972.5
2015-May-21 22:33N 48°32' W 123°01'5410286429.0
2015-May-21 22:32N 32°01' E 120°47'66342604.2
2015-May-21 22:31N 23°06' E 113°27'62016424.3
2015-May-21 21:33N 48°32' W 123°01'6201930187.2
2015-May-21 21:33N 23°06' E 113°27'62016242.9
2015-May-21 20:33N 48°32' W 123°01'6201720144.7
2015-May-21 20:33N 23°06' E 113°27'0 0.0
2015-May-21 19:33N 23°06' E 113°27'6201150841.1
2015-May-21 19:30N 48°32' W 123°01'0 0.0
2015-May-21 18:33N 48°32' W 123°01'62011594628.9
2015-May-21 18:33N 23°06' E 113°27'0 0.1
2015-May-21 17:33N 23°06' E 113°27'8160362677.8
2015-May-21 17:32N 29°33' W 094°59'173358315.1
2015-May-21 17:30N 48°32' W 123°01'0 0.0
2015-May-21 16:33N 48°32' W 123°01'62011860415.5
2015-May-21 16:33N 23°06' E 113°27'642644.6
2015-May-21 15:33N 31°03' E 121°29'542719537469.8
2015-May-21 15:33N 48°32' W 123°01'6201301667.3
2015-May-21 15:32N 23°05' E 113°28'8 7.4
2015-May-21 14:29N 22°58' E 113°32'620435337.9
2015-May-21 14:18N 48°32' W 123°01'0 0.0
2015-May-21 13:24N 48°32' W 123°01'0 0.0
2015-May-21 12:30N 48°32' W 123°01'0 0.0
2015-May-21 11:30N 48°32' W 123°01'0 0.0
2015-May-21 10:30N 48°32' W 123°01'5464126099.6
2015-May-21 10:28N 29°46' E 122°04'8 9.0
2015-May-21 09:33N 29°53' E 122°09'5455144388.5
2015-May-21 09:30N 48°32' W 123°01'54555682.2
2015-May-21 08:33N 29°59' E 122°02'5455137326.4
2015-May-21 08:30N 48°32' W 123°01'0 0.0
2015-May-21 07:30N 48°32' W 123°01'0 0.0
2015-May-21 06:30N 48°32' W 123°01'0 0.0
2015-May-21 05:25N 48°32' W 123°01'0 0.0
2015-May-21 04:30N 48°32' W 123°01'0 0.0
2015-May-21 03:18N 48°32' W 123°01'5428229875.0
2015-May-21 03:17N 31°03' E 121°29'0 0.0
2015-May-21 02:32N 31°03' E 121°29'5428164196.2
2015-May-21 02:31N 48°32' W 123°01'0 0.0
2015-May-21 01:30N 48°32' W 123°01'54282791338.8
2015-May-21 01:30N 31°03' E 121°29'54285441.2
2015-May-21 00:31N 48°32' W 123°01'620816253.2
2015-May-21 00:08N 22°51' E 113°34'5 8.7
2015-May-20 23:32N 22°56' E 113°33'6205338434.9
2015-May-20 23:31N 48°32' W 123°01'62016465.1
2015-May-20 22:33N 23°04' E 113°29'6201152903.3
2015-May-20 22:31N 48°32' W 123°01'5428116305.8
2015-May-20 22:28N 31°03' E 121°29'642690.5
2015-May-20 21:32N 23°06' E 113°26'6202262658.1
2015-May-20 21:31N 48°32' W 123°01'540554961.8
2015-May-20 21:25N 31°09' E 121°52'8 8.9
2015-May-20 20:33N 31°15' E 121°46'661125244.7
2015-May-20 20:33N 23°06' E 113°26'6202190820.0
2015-May-20 20:31N 48°32' W 123°01'542525200.5
2015-May-20 20:18N 31°07' E 121°28'644869.0
2015-May-20 19:33N 23°06' E 113°26'661108215.4
2015-May-20 19:33N 31°20' E 121°40'13471.7
2015-May-20 19:31N 31°11' E 121°28'5421390293.3
2015-May-20 19:31N 48°32' W 123°01'62026516.6
2015-May-20 18:33N 23°06' E 113°26'620263067.6
2015-May-20 18:28N 48°32' W 123°01'540780432.4
2015-May-20 18:24N 31°24' E 121°33'660786.2
2015-May-20 17:33N 23°06' E 113°26'65962445.4
2015-May-20 17:33N 31°26' E 121°30'5408164985.9
2015-May-20 17:31N 48°32' W 123°01'5411389575.3
2015-May-20 17:30N 31°21' E 121°31'656692.6
2015-May-20 16:33N 23°06' E 113°27'659103122.0
2015-May-20 16:33N 31°28' E 121°26'5408167844.5
2015-May-20 16:31N 48°32' W 123°01'541169073.7
2015-May-20 16:26N 31°22' E 121°30'4431240.9
2015-May-20 16:04N 38°16' E 118°20'9451814.8
2015-May-20 15:33N 23°06' E 113°27'6201140407.1
2015-May-20 15:31N 48°32' W 123°01'540920805.7
2015-May-20 15:15N 31°33' E 121°20'659929.7
2015-May-20 14:32N 23°06' E 113°27'6566058.4
2015-May-20 14:26N 31°22' E 121°30'5411231887.6
2015-May-20 14:25N 48°32' W 123°01'62017187.6
2015-May-20 13:33N 23°06' E 113°27'6567902.3
2015-May-20 13:28N 31°22' E 121°30'5411100405.0
2015-May-20 13:25N 48°32' W 123°01'62017234.2
2015-May-20 12:33N 23°06' E 113°27'6201146873.3
2015-May-20 12:31N 48°32' W 123°01'62016417.0
2015-May-20 11:33N 23°06' E 113°27'6201182989.7
2015-May-20 11:31N 48°32' W 123°01'62016456.0
2015-May-20 10:33N 23°06' E 113°27'6201157216.4
2015-May-20 10:31N 48°32' W 123°01'541134173.0
2015-May-20 10:21N 31°22' E 121°30'656826.7
2015-May-20 09:33N 23°06' E 113°27'6201132098.9
2015-May-20 09:31N 48°32' W 123°01'541121149.0
2015-May-20 09:15N 31°22' E 121°30'656933.7
2015-May-20 08:33N 23°06' E 113°27'65321000.9
2015-May-20 08:31N 31°21' E 121°26'5414512945.8
2015-May-20 08:31N 48°32' W 123°01'62016506.8
2015-May-20 07:33N 23°06' E 113°27'6201133681.0
2015-May-20 07:31N 48°32' W 123°01'541514146.7
2015-May-20 07:08N 31°21' E 121°26'6531094.1
2015-May-20 06:32N 23°06' E 113°26'6202301702.0
2015-May-20 06:31N 48°32' W 123°01'541524960.6
2015-May-20 06:18N 31°21' E 121°26'653884.9
2015-May-20 05:33N 23°06' E 113°26'6202139537.1
2015-May-20 05:31N 48°32' W 123°01'62026492.0
2015-May-20 04:33N 23°06' E 113°26'6202138670.5
2015-May-20 04:31N 48°32' W 123°01'62026454.5
2015-May-20 03:33N 23°06' E 113°26'6202158340.1
2015-May-20 03:31N 48°32' W 123°01'0 0.0
2015-May-20 02:31N 48°32' W 123°01'6201365977.0
2015-May-20 02:30N 23°02' E 113°31'  
Track history (hours):
 
Tides and Currents Weather Stations Pressure Air Temp Water Temp Dewpoint Dewpoint Depression Visibility Wind Speed Wind Dir Waves Ship Positions

Paulistana II

Last reported at 2015-May-30 01:33 UTC. Time now 2015-May-30 02:29 UTC.
Position N 31°22' E 121°40'.

Length 6 m.

Type: Pollution control. MMSI: 316014038.

Date/timePositionNaut miles runAvg speedWind from/ knotsBaromVisibWave heightAir tempDewpointWater temp
2015-May-30 01:33N 31°22' E 121°40'0 0.0
2015-May-30 00:33N 31°22' E 121°40'11164.5
2015-May-30 00:29N 31°21' E 121°27'1112.2
2015-May-29 23:33N 31°22' E 121°40'9479.3
2015-May-29 23:32N 31°22' E 121°30'9 9.2
2015-May-29 22:33N 31°22' E 121°40'0 0.0
2015-May-29 21:33N 31°22' E 121°40'0 0.0
2015-May-29 20:33N 31°22' E 121°40'77313.0
2015-May-29 20:18N 31°58' E 120°21'77102.4
2015-May-29 19:33N 31°22' E 121°40'77215.8
2015-May-29 19:12N 31°58' E 120°21'77117.9
2015-May-29 18:33N 31°22' E 121°40'771484.2
2015-May-29 18:30N 31°58' E 120°21'7780.8
2015-May-29 17:33N 31°22' E 121°40'7713144.9
2015-May-29 17:33N 31°58' E 120°21'7777.1
2015-May-29 16:33N 31°22' E 121°40'77295.9
2015-May-29 16:18N 31°58' E 120°21'77103.4
2015-May-29 15:33N 31°21' E 121°40'911146.7
2015-May-29 15:33N 31°24' E 121°30'10 9.7
2015-May-29 14:33N 31°20' E 121°40'1081.4
2015-May-29 14:26N 31°24' E 121°30'68201.2
2015-May-29 14:05N 31°58' E 120°21'78144.2
2015-May-29 13:33N 31°20' E 121°40'10303.0
2015-May-29 13:31N 31°24' E 121°30'682267.4
2015-May-29 13:29N 31°58' E 120°21'7881.8
2015-May-29 12:32N 31°20' E 121°40'7746486.3
2015-May-29 12:32N 31°58' E 120°21'681536.7
2015-May-29 12:30N 31°24' E 121°30'1010.3
2015-May-29 11:33N 31°20' E 121°40'1044.9
2015-May-29 11:21N 31°24' E 121°30'68337.4
2015-May-29 11:09N 31°58' E 120°21'77130.8
2015-May-29 10:33N 31°20' E 121°40'77713.3
2015-May-29 10:26N 31°58' E 120°21'7885.7
2015-May-29 09:32N 31°20' E 121°40'6 6.0
2015-May-29 08:33N 31°23' E 121°35'7216113.3
2015-May-29 08:32N 31°58' E 120°21'6360.3
2015-May-29 07:30N 31°28' E 121°26'6 6.3
2015-May-29 06:33N 31°32' E 121°21'6 6.2
2015-May-29 05:33N 31°37' E 121°16'6 6.1
2015-May-29 04:31N 31°41' E 121°11'4546.4
2015-May-29 03:32N 31°58' E 120°21'38100.2
2015-May-29 03:09N 31°45' E 121°04'3 4.7
2015-May-29 02:31N 31°46' E 121°01'351289.4
2015-May-29 02:29N 31°58' E 120°21'0 0.0
2015-May-29 00:28N 31°58' E 120°21'0 0.0
2015-May-28 23:16N 31°58' E 120°21'0 0.0
2015-May-28 22:22N 31°58' E 120°21'3752101.4
2015-May-28 22:11N 25°45' E 119°39'37816800.1
2015-May-28 22:10N 31°60' E 120°39'4 6.5
2015-May-28 21:29N 32°02' E 120°35'1253.7
2015-May-28 21:16N 31°58' E 120°21'7 8.6
2015-May-28 20:24N 32°04' E 120°27'7251.6
2015-May-28 20:22N 31°58' E 120°21'0 0.0
2015-May-28 15:22N 31°58' E 120°21'2 0.9
2015-May-28 13:24N 31°60' E 120°23'2 7.8
2015-May-28 13:09N 31°58' E 120°21'0 0.0
2015-May-28 12:21N 31°58' E 120°21'0 0.0
2015-May-28 10:15N 31°58' E 120°21'0 0.0
2015-May-28 08:27N 31°58' E 120°21'0 0.0
2015-May-28 06:24N 31°58' E 120°21'0 0.0
2015-May-28 03:30N 31°58' E 120°21'647684.6
2015-May-28 02:33N 23°06' E 113°26'1 0.9
2015-May-28 01:32N 23°05' E 113°27'6471447.1
2015-May-28 01:05N 31°58' E 120°21'6511142.9
2015-May-28 00:31N 22°58' E 113°32'6517996.4
2015-May-28 00:26N 31°58' E 120°21'745833435.0
2015-May-28 00:13N 29°33' W 095°02'2 2.4
2015-May-27 23:33N 29°33' W 094°60'745943735.0
2015-May-27 23:23N 31°58' E 120°21'0 0.0
2015-May-27 22:08N 31°58' E 120°21'0 0.0
2015-May-27 21:32N 31°58' E 120°21'0 0.0
2015-May-27 20:20N 31°58' E 120°21'0 0.0
2015-May-27 19:11N 31°58' E 120°21'0 0.0
2015-May-27 16:31N 31°58' E 120°21'0 0.0
2015-May-27 15:25N 31°58' E 120°21'9230109297.2
2015-May-27 15:20N 41°38' W 071°23'923010065.6
2015-May-27 14:25N 31°58' E 120°21'0 0.0
2015-May-27 13:31N 31°58' E 120°21'0 0.0
2015-May-27 12:25N 31°58' E 120°21'0 0.0
2015-May-27 10:04N 31°58' E 120°21'0 0.0
2015-May-27 08:19N 31°58' E 120°21'0 0.0
2015-May-27 06:22N 31°58' E 120°21'0 0.0
2015-May-27 00:27N 31°58' E 120°21'652210.0
2015-May-26 21:21N 22°56' E 113°33'7 9.2
2015-May-26 20:33N 23°03' E 113°30'4 3.6
2015-May-26 19:33N 23°06' E 113°27'94359346.3
2015-May-26 18:33N 41°37' W 071°24'94351306327.4
2015-May-26 18:32N 23°06' E 113°27'0 0.0
2015-May-26 17:33N 23°06' E 113°27'6571534.2
2015-May-26 17:08N 31°20' E 121°33'6571131.8
2015-May-26 16:33N 23°06' E 113°27'0 0.0
2015-May-26 15:33N 23°06' E 113°27'0 0.0
2015-May-26 14:33N 23°06' E 113°27'0 0.0
2015-May-26 13:33N 23°06' E 113°27'0 0.0
2015-May-26 12:33N 23°06' E 113°27'0 0.0
2015-May-26 11:33N 23°06' E 113°27'0 0.0
2015-May-26 10:33N 23°06' E 113°27'0 0.0
2015-May-26 09:33N 23°06' E 113°27'0 0.0
2015-May-26 08:33N 23°06' E 113°27'0 0.0
2015-May-26 07:33N 23°06' E 113°27'4 3.6
2015-May-26 06:33N 23°03' E 113°30'661163.4
2015-May-26 02:30N 31°55' E 120°52'6 6.1
2015-May-26 01:33N 32°00' E 120°49'51 3.9
2015-May-25 12:24N 31°22' E 121°29'4 1.1
2015-May-25 09:10N 31°20' E 121°25'0 0.0
2015-May-25 07:16N 31°20' E 121°25'656173.3
2015-May-25 03:29N 22°56' E 113°33'8 9.1
2015-May-25 02:33N 23°04' E 113°30'4 3.7
2015-May-25 01:31N 23°05' E 113°26'9452368.4
2015-May-25 01:07N 38°16' E 118°20'9451666.7
2015-May-25 00:33N 23°05' E 113°26'94521678.3
2015-May-25 00:30N 38°16' E 118°21'520712062.5
2015-May-25 00:05N 48°34' W 123°01'620011342.0
2015-May-24 23:32N 23°06' E 113°27'9453331.8
2015-May-24 23:15N 38°16' E 118°20'0 0.0
2015-May-24 22:33N 38°16' E 118°20'94553997.5
2015-May-24 22:32N 23°06' E 113°27'94969605.3
2015-May-24 21:33N 41°19' W 072°21'9496422042.3
2015-May-24 21:32N 23°06' E 113°27'94541997.2
2015-May-24 21:30N 38°16' E 118°20'87929209.0
2015-May-24 20:33N 41°20' W 072°21'949517091692.9
2015-May-24 20:33N 23°06' E 113°27'9454966.1
2015-May-24 20:22N 38°16' E 118°20'9451175.1
2015-May-24 19:33N 23°06' E 113°27'94972136832.6
2015-May-24 19:33N 41°17' W 072°21'8794310390.7
2015-May-24 19:31N 38°16' E 118°20'945971.4
2015-May-24 18:33N 23°06' E 113°27'9496633067.5
2015-May-24 18:32N 41°19' W 072°21'8793209635.5
2015-May-24 18:30N 38°16' E 118°20'9451007.4
2015-May-24 17:33N 23°06' E 113°27'94964273089.2
2015-May-24 17:33N 41°19' W 072°21'94969522.2
2015-May-24 16:33N 23°06' E 113°27'0 0.1
2015-May-24 15:33N 23°06' E 113°27'0 0.0
2015-May-24 14:33N 23°06' E 113°27'0 0.0
2015-May-24 13:33N 23°06' E 113°27'0 0.0
2015-May-24 12:33N 23°06' E 113°27'0 0.0
2015-May-24 11:33N 23°06' E 113°27'0 0.0
2015-May-24 10:33N 23°06' E 113°27'0 0.0
2015-May-24 09:33N 23°06' E 113°27'0 0.0
2015-May-24 08:33N 23°06' E 113°27'0 0.0
2015-May-24 07:33N 23°06' E 113°27'1 1.1
2015-May-24 06:33N 23°05' E 113°26'6554030.6
2015-May-24 06:23N 31°21' E 121°27'655782.1
2015-May-24 05:33N 23°05' E 113°26'6572546.7
2015-May-24 05:18N 31°22' E 121°30'657880.2
2015-May-24 04:33N 23°05' E 113°26'4 4.3
2015-May-24 03:33N 23°03' E 113°30'946396.6
2015-May-24 01:09N 38°16' E 118°19'5 7.7
2015-May-24 00:28N 38°15' E 118°12'1 0.9
2015-May-23 23:33N 38°15' E 118°13'3932707.9
2015-May-23 23:24N 32°02' E 120°45'1 1.0
2015-May-23 22:31N 32°02' E 120°46'39342895.6
2015-May-23 22:30N 38°16' E 118°19'0 0.0
2015-May-23 21:32N 38°16' E 118°19'39716993.7
2015-May-23 21:30N 31°59' E 120°50'397418.1
2015-May-23 20:33N 38°16' E 118°19'0 0.0
2015-May-23 19:30N 38°16' E 118°19'0 0.0
2015-May-23 18:21N 38°16' E 118°19'5210322.8
2015-May-23 02:13N 48°32' W 123°00'1 0.8
2015-May-23 01:33N 48°32' W 123°01'62022065.3
2015-May-22 22:33N 23°01' E 113°31'62022232745.4
2015-May-22 22:33N 48°32' W 123°01'62026218.8
2015-May-22 21:33N 23°06' E 113°27'620260502.9
2015-May-22 21:27N 48°32' W 123°01'62026909.8
2015-May-22 20:33N 23°06' E 113°27'620260667.3
2015-May-22 20:27N 48°32' W 123°01'62026781.8
2015-May-22 19:32N 23°06' E 113°27'620233421.7
2015-May-22 19:21N 48°32' W 123°01'0 0.0
2015-May-22 18:33N 48°32' W 123°01'6202676544.2
2015-May-22 18:33N 23°06' E 113°26'0 0.0
2015-May-22 17:33N 23°06' E 113°26'62022029633.4
2015-May-22 17:33N 48°32' W 123°01'62016220.3
2015-May-22 16:33N 23°06' E 113°27'62012029520.0
2015-May-22 16:33N 48°32' W 123°01'62016222.1
2015-May-22 15:33N 23°06' E 113°27'620160174.9
2015-May-22 15:27N 48°32' W 123°01'62016911.7
2015-May-22 14:33N 23°06' E 113°27'62012232471.3
2015-May-22 14:33N 48°32' W 123°01'62016220.3
2015-May-22 13:33N 23°06' E 113°27'62012232470.2
2015-May-22 13:33N 48°32' W 123°01'62016148.4
2015-May-22 12:33N 23°06' E 113°27'620125719.7
2015-May-22 12:18N 48°32' W 123°01'62018174.6
2015-May-22 11:33N 23°06' E 113°27'6201150842.6
2015-May-22 11:30N 48°32' W 123°01'62026564.6
2015-May-22 10:34N 23°06' E 113°27'6202112191.4
2015-May-22 10:30N 48°32' W 123°01'62026527.0
2015-May-22 09:33N 23°05' E 113°26'6202125442.8
2015-May-22 09:30N 48°32' W 123°01'62026449.7
2015-May-22 08:33N 23°05' E 113°26'620270216.4
2015-May-22 08:27N 48°32' W 123°01'0 0.0
2015-May-22 07:33N 48°32' W 123°01'6202398729.2
2015-May-22 07:32N 23°05' E 113°26'62026300.5
2015-May-22 06:33N 48°32' W 123°01'62021240490.7
2015-May-22 06:33N 23°05' E 113°26'0 0.0
2015-May-22 05:33N 23°05' E 113°26'620211164412.3
2015-May-22 05:33N 48°32' W 123°01'62026204.2
2015-May-22 04:33N 23°05' E 113°26'6202124049.1
2015-May-22 04:30N 48°32' W 123°01'0 0.0
2015-May-22 03:33N 48°32' W 123°01'6202544605.7
2015-May-22 03:33N 23°05' E 113°26'6601441.0
2015-May-22 03:05N 31°39' E 121°13'540910206.1
2015-May-22 02:33N 48°32' W 123°01'6202603482.0
2015-May-22 02:33N 23°05' E 113°26'0 0.0
2015-May-22 01:33N 23°05' E 113°26'6202136151.4
2015-May-22 01:30N 48°32' W 123°01'62026536.5
2015-May-22 00:33N 23°05' E 113°26'620222328824.7
2015-May-22 00:33N 48°32' W 123°01'62026218.0
2015-May-21 23:33N 23°05' E 113°26'62022791104.1
2015-May-21 23:33N 48°32' W 123°01'541016804.9
2015-May-21 23:14N 31°58' E 120°51'54107972.5
2015-May-21 22:33N 48°32' W 123°01'5410286429.0
2015-May-21 22:32N 32°01' E 120°47'66342604.2
2015-May-21 22:31N 23°06' E 113°27'62016424.3
2015-May-21 21:33N 48°32' W 123°01'6201930187.2
2015-May-21 21:33N 23°06' E 113°27'62016242.9
2015-May-21 20:33N 48°32' W 123°01'6201720144.7
2015-May-21 20:33N 23°06' E 113°27'0 0.0
2015-May-21 19:33N 23°06' E 113°27'6201150841.1
2015-May-21 19:30N 48°32' W 123°01'0 0.0
2015-May-21 18:33N 48°32' W 123°01'62011594628.9
2015-May-21 18:33N 23°06' E 113°27'0 0.1
2015-May-21 17:33N 23°06' E 113°27'8160362677.8
2015-May-21 17:32N 29°33' W 094°59'173358315.1
2015-May-21 17:30N 48°32' W 123°01'0 0.0
2015-May-21 16:33N 48°32' W 123°01'62011860415.5
2015-May-21 16:33N 23°06' E 113°27'642644.6
2015-May-21 15:33N 31°03' E 121°29'542719537469.8
2015-May-21 15:33N 48°32' W 123°01'6201301667.3
2015-May-21 15:32N 23°05' E 113°28'8 7.4
2015-May-21 14:29N 22°58' E 113°32'620435337.9
2015-May-21 14:18N 48°32' W 123°01'0 0.0
2015-May-21 13:24N 48°32' W 123°01'0 0.0
2015-May-21 12:30N 48°32' W 123°01'0 0.0
2015-May-21 11:30N 48°32' W 123°01'0 0.0
2015-May-21 10:30N 48°32' W 123°01'5464126099.6
2015-May-21 10:28N 29°46' E 122°04'8 9.0
2015-May-21 09:33N 29°53' E 122°09'5455144388.5
2015-May-21 09:30N 48°32' W 123°01'54555682.2
2015-May-21 08:33N 29°59' E 122°02'5455137326.4
2015-May-21 08:30N 48°32' W 123°01'0 0.0
2015-May-21 07:30N 48°32' W 123°01'0 0.0
2015-May-21 06:30N 48°32' W 123°01'0 0.0
2015-May-21 05:25N 48°32' W 123°01'0 0.0
2015-May-21 04:30N 48°32' W 123°01'0 0.0
2015-May-21 03:18N 48°32' W 123°01'5428229875.0
2015-May-21 03:17N 31°03' E 121°29'0 0.0
2015-May-21 02:32N 31°03' E 121°29'5428164196.2
2015-May-21 02:31N 48°32' W 123°01'0 0.0
2015-May-21 01:30N 48°32' W 123°01'54282791338.8
2015-May-21 01:30N 31°03' E 121°29'54285441.2
2015-May-21 00:31N 48°32' W 123°01'620816253.2
2015-May-21 00:08N 22°51' E 113°34'5 8.7
2015-May-20 23:32N 22°56' E 113°33'6205338434.9
2015-May-20 23:31N 48°32' W 123°01'62016465.1
2015-May-20 22:33N 23°04' E 113°29'6201152903.3
2015-May-20 22:31N 48°32' W 123°01'5428116305.8
2015-May-20 22:28N 31°03' E 121°29'642690.5
2015-May-20 21:32N 23°06' E 113°26'6202262658.1
2015-May-20 21:31N 48°32' W 123°01'540554961.8
2015-May-20 21:25N 31°09' E 121°52'8 8.9
2015-May-20 20:33N 31°15' E 121°46'661125244.7
2015-May-20 20:33N 23°06' E 113°26'6202190820.0
2015-May-20 20:31N 48°32' W 123°01'542525200.5
2015-May-20 20:18N 31°07' E 121°28'644869.0
2015-May-20 19:33N 23°06' E 113°26'661108215.4
2015-May-20 19:33N 31°20' E 121°40'13471.7
2015-May-20 19:31N 31°11' E 121°28'5421390293.3
2015-May-20 19:31N 48°32' W 123°01'62026516.6
2015-May-20 18:33N 23°06' E 113°26'620263067.6
2015-May-20 18:28N 48°32' W 123°01'540780432.4
2015-May-20 18:24N 31°24' E 121°33'660786.2
2015-May-20 17:33N 23°06' E 113°26'65962445.4
2015-May-20 17:33N 31°26' E 121°30'5408164985.9
2015-May-20 17:31N 48°32' W 123°01'5411389575.3
2015-May-20 17:30N 31°21' E 121°31'656692.6
2015-May-20 16:33N 23°06' E 113°27'659103122.0
2015-May-20 16:33N 31°28' E 121°26'5408167844.5
2015-May-20 16:31N 48°32' W 123°01'541169073.7
2015-May-20 16:26N 31°22' E 121°30'4431240.9
2015-May-20 16:04N 38°16' E 118°20'9451814.8
2015-May-20 15:33N 23°06' E 113°27'6201140407.1
2015-May-20 15:31N 48°32' W 123°01'540920805.7
2015-May-20 15:15N 31°33' E 121°20'659929.7
2015-May-20 14:32N 23°06' E 113°27'6566058.4
2015-May-20 14:26N 31°22' E 121°30'5411231887.6
2015-May-20 14:25N 48°32' W 123°01'62017187.6
2015-May-20 13:33N 23°06' E 113°27'6567902.3
2015-May-20 13:28N 31°22' E 121°30'5411100405.0
2015-May-20 13:25N 48°32' W 123°01'62017234.2
2015-May-20 12:33N 23°06' E 113°27'6201146873.3
2015-May-20 12:31N 48°32' W 123°01'62016417.0
2015-May-20 11:33N 23°06' E 113°27'6201182989.7
2015-May-20 11:31N 48°32' W 123°01'62016456.0
2015-May-20 10:33N 23°06' E 113°27'6201157216.4
2015-May-20 10:31N 48°32' W 123°01'541134173.0
2015-May-20 10:21N 31°22' E 121°30'656826.7
2015-May-20 09:33N 23°06' E 113°27'6201132098.9
2015-May-20 09:31N 48°32' W 123°01'541121149.0
2015-May-20 09:15N 31°22' E 121°30'656933.7
2015-May-20 08:33N 23°06' E 113°27'65321000.9
2015-May-20 08:31N 31°21' E 121°26'5414512945.8
2015-May-20 08:31N 48°32' W 123°01'62016506.8
2015-May-20 07:33N 23°06' E 113°27'6201133681.0
2015-May-20 07:31N 48°32' W 123°01'541514146.7
2015-May-20 07:08N 31°21' E 121°26'6531094.1
2015-May-20 06:32N 23°06' E 113°26'6202301702.0
2015-May-20 06:31N 48°32' W 123°01'541524960.6
2015-May-20 06:18N 31°21' E 121°26'653884.9
2015-May-20 05:33N 23°06' E 113°26'6202139537.1
2015-May-20 05:31N 48°32' W 123°01'62026492.0
2015-May-20 04:33N 23°06' E 113°26'6202138670.5
2015-May-20 04:31N 48°32' W 123°01'62026454.5
2015-May-20 03:33N 23°06' E 113°26'6202158340.1
2015-May-20 03:31N 48°32' W 123°01'0 0.0
2015-May-20 02:31N 48°32' W 123°01'6201365977.0
2015-May-20 02:30N 23°02' E 113°31'  

Dump ship's entire track history